Time;durP1;ratioP1;P1;durP2;ratioP2;P2;SDS_P1;SDS_P2;PMS_P1;PMS_P2;Temp;Humidity;BMP_temperature;BMP_pressure;BME280_temperature;BME280_humidity;BME280_pressure;Samples;Min_cycle;Max_cycle;Signal;HPM_P1;HPM_P2
2022/04/25 00:00:19;;;;;;;1.20;0.35;;;;;;;;;;4960222;28;20076;-93
2022/04/25 00:02:45;;;;;;;0.50;0.30;;;;;;;;;;4960385;28;20027;-93
2022/04/25 00:05:11;;;;;;;4.25;0.30;;;;;;;;;;4960109;28;20023;-93
2022/04/25 00:07:37;;;;;;;2.50;0.50;;;;;;;;;;4960537;28;20023;-93
2022/04/25 00:10:04;;;;;;;2.85;0.50;;;;;;;;;;4959826;28;20498;-93
2022/04/25 00:12:30;;;;;;;1.58;0.60;;;;;;;;;;4960224;28;20033;-93
2022/04/25 00:14:56;;;;;;;1.40;0.45;;;;;;;;;;4960184;28;20034;-93
2022/04/25 00:17:23;;;;;;;3.72;0.90;;;;;;;;;;4959905;28;20029;-93
2022/04/25 00:19:49;;;;;;;2.13;0.80;;;;;;;;;;4959868;28;20055;-93
2022/04/25 00:22:15;;;;;;;2.63;0.70;;;;;;;;;;4959172;28;20070;-93
2022/04/25 00:24:44;;;;;;;1.00;0.50;;;;;;;;;;4959919;28;20030;-93
2022/04/25 00:27:12;;;;;;;2.25;0.80;;;;;;;;;;4959772;28;20591;-94
2022/04/25 00:29:38;;;;;;;4.32;0.95;;;;;;;;;;4959843;28;20027;-94
2022/04/25 00:32:05;;;;;;;3.45;0.93;;;;;;;;;;4959669;28;20023;-94
2022/04/25 00:34:31;;;;;;;1.88;0.47;;;;;;;;;;4959677;28;20022;-94
2022/04/25 00:36:57;;;;;;;2.42;1.00;;;;;;;;;;4959616;28;20027;-93
2022/04/25 00:39:24;;;;;;;5.60;0.90;;;;;;;;;;4959447;28;20431;-94
2022/04/25 00:41:50;;;;;;;1.42;0.60;;;;;;;;;;4959508;28;20026;-94
2022/04/25 00:44:17;;;;;;;2.25;0.43;;;;;;;;;;4959521;28;20475;-94
2022/04/25 00:46:44;;;;;;;1.52;0.52;;;;;;;;;;4959549;28;20468;-93
2022/04/25 00:49:10;;;;;;;1.98;0.55;;;;;;;;;;4959315;28;20035;-93
2022/04/25 00:51:36;;;;;;;3.13;0.70;;;;;;;;;;4959586;28;20037;-94
2022/04/25 00:54:03;;;;;;;6.78;0.90;;;;;;;;;;4959407;28;20023;-94
2022/04/25 00:56:29;;;;;;;3.72;0.90;;;;;;;;;;4960242;28;20489;-94
2022/04/25 00:58:55;;;;;;;3.13;0.90;;;;;;;;;;4959152;28;20131;-94
2022/04/25 01:01:21;;;;;;;2.97;1.20;;;;;;;;;;4959255;28;20023;-94
2022/04/25 01:03:49;;;;;;;5.90;1.33;;;;;;;;;;4959110;28;20027;-94
2022/04/25 01:06:15;;;;;;;4.40;1.20;;;;;;;;;;4958942;28;20038;-94
2022/04/25 01:08:42;;;;;;;2.70;1.38;;;;;;;;;;4959131;28;20027;-93
2022/04/25 01:11:08;;;;;;;2.70;1.00;;;;;;;;;;4958961;28;20133;-94
2022/04/25 01:13:34;;;;;;;4.47;0.90;;;;;;;;;;4958940;28;20034;-94
2022/04/25 01:16:00;;;;;;;2.45;0.70;;;;;;;;;;4959186;28;20030;-94
2022/04/25 01:18:26;;;;;;;5.70;1.58;;;;;;;;;;4959063;28;20022;-94
2022/04/25 01:20:55;;;;;;;7.35;1.63;;;;;;;;;;4958857;28;20031;-94
2022/04/25 01:28:52;;;;;;;8.65;1.92;;;;;;;;;;4976316;28;20158;-93
2022/04/25 01:31:18;;;;;;;5.80;1.98;;;;;;;;;;4958842;28;20031;-92
2022/04/25 01:33:44;;;;;;;6.82;1.60;;;;;;;;;;4958467;28;20077;-93
2022/04/25 01:36:11;;;;;;;4.30;1.52;;;;;;;;;;4958608;28;20468;-92
2022/04/25 01:38:37;;;;;;;3.58;1.27;;;;;;;;;;4958510;28;20026;-92
2022/04/25 01:41:03;;;;;;;3.78;1.00;;;;;;;;;;4958626;28;20031;-92
2022/04/25 01:43:29;;;;;;;4.68;0.90;;;;;;;;;;4958747;28;20027;-92
2022/04/25 01:45:55;;;;;;;2.90;0.70;;;;;;;;;;4958710;28;20500;-93
2022/04/25 01:48:21;;;;;;;3.90;0.90;;;;;;;;;;4958496;28;20031;-92
2022/04/25 01:50:49;;;;;;;2.92;0.77;;;;;;;;;;4958379;28;20027;-93
2022/04/25 01:53:16;;;;;;;2.22;0.75;;;;;;;;;;4958392;28;20483;-93
2022/04/25 01:55:42;;;;;;;5.97;1.30;;;;;;;;;;4958363;28;20029;-92
2022/04/25 01:58:08;;;;;;;3.47;0.90;;;;;;;;;;4958407;28;20023;-92
2022/04/25 02:00:34;;;;;;;5.90;1.00;;;;;;;;;;4958325;28;20015;-92
2022/04/25 02:03:00;;;;;;;3.92;0.90;;;;;;;;;;4958395;28;20089;-92
2022/04/25 02:05:27;;;;;;;3.10;0.93;;;;;;;;;;4958604;28;20094;-92
2022/04/25 02:07:53;;;;;;;3.50;1.00;;;;;;;;;;4957955;28;20065;-93
2022/04/25 02:10:19;;;;;;;4.68;1.52;;;;;;;;;;4957985;28;20034;-92
2022/04/25 02:12:45;;;;;;;4.32;1.00;;;;;;;;;;4958377;28;20031;-92
2022/04/25 02:15:13;;;;;;;7.07;1.13;;;;;;;;;;4958109;28;20027;-92
2022/04/25 02:17:39;;;;;;;6.25;1.15;;;;;;;;;;4958197;28;20033;-92
2022/04/25 02:20:06;;;;;;;3.35;0.98;;;;;;;;;;4958245;28;20130;-93
2022/04/25 02:22:35;;;;;;;3.40;1.02;;;;;;;;;;4958103;28;20085;-92
2022/04/25 02:25:01;;;;;;;4.45;0.88;;;;;;;;;;4958059;28;20073;-93
2022/04/25 02:27:27;;;;;;;7.68;1.55;;;;;;;;;;4957967;28;20550;-93
2022/04/25 02:29:57;;;;;;;2.10;0.95;;;;;;;;;;4958166;28;20439;-93
2022/04/25 02:32:23;;;;;;;4.63;1.45;;;;;;;;;;4958479;28;20023;-93
2022/04/25 02:34:53;;;;;;;5.72;1.13;;;;;;;;;;4958024;28;20547;-91
2022/04/25 02:37:19;;;;;;;4.20;1.25;;;;;;;;;;4957885;28;20114;-92
2022/04/25 02:39:46;;;;;;;5.72;1.15;;;;;;;;;;4957867;28;20033;-92
2022/04/25 02:42:12;;;;;;;7.05;1.40;;;;;;;;;;4957983;28;20022;-92
2022/04/25 02:44:38;;;;;;;5.55;1.25;;;;;;;;;;4958476;28;20031;-92
2022/04/25 02:47:05;;;;;;;4.53;1.15;;;;;;;;;;4961505;28;20466;-92
2022/04/25 02:49:31;;;;;;;6.95;1.33;;;;;;;;;;4961347;28;20391;-92
2022/04/25 02:51:57;;;;;;;5.63;1.10;;;;;;;;;;4961300;28;20034;-93
2022/04/25 02:54:23;;;;;;;4.82;1.20;;;;;;;;;;4961218;28;20035;-93
2022/04/25 02:56:50;;;;;;;4.35;1.38;;;;;;;;;;4961461;28;20027;-92
2022/04/25 02:59:16;;;;;;;7.82;1.70;;;;;;;;;;4961439;28;20541;-92
2022/04/25 03:01:42;;;;;;;2.42;1.25;;;;;;;;;;4961541;28;20456;-92
2022/04/25 03:04:09;;;;;;;7.53;1.58;;;;;;;;;;4961190;28;20026;-93
2022/04/25 03:06:35;;;;;;;5.65;1.77;;;;;;;;;;4961201;28;20395;-93
2022/04/25 03:09:02;;;;;;;3.75;1.20;;;;;;;;;;4961018;28;20022;-92
2022/04/25 03:11:28;;;;;;;6.40;2.03;;;;;;;;;;4960790;28;20043;-92
2022/04/25 03:13:54;;;;;;;2.90;1.00;;;;;;;;;;4961048;28;20538;-92
2022/04/25 03:16:20;;;;;;;7.75;1.42;;;;;;;;;;4961030;28;20046;-92
2022/04/25 03:18:48;;;;;;;11.50;1.40;;;;;;;;;;4960882;28;20027;-92
2022/04/25 03:21:14;;;;;;;9.60;2.20;;;;;;;;;;4961072;28;20494;-93
2022/04/25 03:23:40;;;;;;;7.90;1.30;;;;;;;;;;4960818;28;20033;-93
2022/04/25 03:26:07;;;;;;;4.72;1.10;;;;;;;;;;4960750;28;20054;-93
2022/04/25 03:28:33;;;;;;;2.67;1.13;;;;;;;;;;4960830;28;20030;-93
2022/04/25 03:30:59;;;;;;;4.03;1.27;;;;;;;;;;4960662;28;20030;-93
2022/04/25 03:33:31;;;;;;;6.13;1.08;;;;;;;;;;4960736;28;20126;-93
2022/04/25 03:35:57;;;;;;;2.80;1.02;;;;;;;;;;4960612;28;20026;-93
2022/04/25 03:38:23;;;;;;;4.22;1.10;;;;;;;;;;4960874;28;20031;-92
2022/04/25 03:40:50;;;;;;;7.82;1.48;;;;;;;;;;4961019;28;20031;-93
2022/04/25 03:43:17;;;;;;;7.38;1.20;;;;;;;;;;4960673;28;20550;-93
2022/04/25 03:45:43;;;;;;;6.13;1.40;;;;;;;;;;4960410;28;20070;-92
2022/04/25 03:48:09;;;;;;;7.05;1.85;;;;;;;;;;4960622;28;20019;-93
2022/04/25 03:50:36;;;;;;;13.60;2.05;;;;;;;;;;4960452;28;20475;-93
2022/04/25 03:53:10;;;;;;;3.88;1.38;;;;;;;;;;4960391;28;20046;-93
2022/04/25 03:58:22;;;;;;;7.15;1.35;;;;;;;;;;4977361;28;20065;-92
2022/04/25 04:00:49;;;;;;;5.22;0.80;;;;;;;;;;4960199;28;20077;-92
2022/04/25 04:03:15;;;;;;;2.80;1.00;;;;;;;;;;4960288;28;20019;-92
2022/04/25 04:05:42;;;;;;;2.75;1.10;;;;;;;;;;4960194;28;20165;-93
2022/04/25 04:08:09;;;;;;;4.57;1.65;;;;;;;;;;4959992;28;20074;-92
2022/04/25 04:10:35;;;;;;;4.13;0.70;;;;;;;;;;4959837;28;20054;-92
2022/04/25 04:13:01;;;;;;;6.15;1.05;;;;;;;;;;4960045;28;20089;-92
2022/04/25 04:15:27;;;;;;;3.95;1.00;;;;;;;;;;4960099;28;20499;-92
2022/04/25 04:17:53;;;;;;;4.50;1.52;;;;;;;;;;4960178;28;20076;-93
2022/04/25 04:20:20;;;;;;;4.78;1.15;;;;;;;;;;4959730;28;20035;-94
2022/04/25 04:22:46;;;;;;;3.15;1.10;;;;;;;;;;4959969;28;20093;-94
2022/04/25 04:25:13;;;;;;;3.90;1.30;;;;;;;;;;4959965;28;20113;-93
2022/04/25 04:27:43;;;;;;;4.88;1.17;;;;;;;;;;4959739;28;20384;-92
2022/04/25 04:30:11;;;;;;;3.10;1.23;;;;;;;;;;4959654;28;20023;-92
2022/04/25 04:32:38;;;;;;;7.35;1.30;;;;;;;;;;4959720;28;20487;-93
2022/04/25 04:35:07;;;;;;;3.55;1.23;;;;;;;;;;4959598;28;20027;-92
2022/04/25 04:37:33;;;;;;;4.43;1.10;;;;;;;;;;4959377;28;20034;-93
2022/04/25 04:42:45;;;;;;;6.95;1.30;;;;;;;;;;4976887;28;20066;-95
2022/04/25 04:45:12;;;;;;;4.75;1.35;;;;;;;;;;4959480;28;20019;-93
2022/04/25 04:47:38;;;;;;;5.93;1.50;;;;;;;;;;4959319;28;20026;-95
2022/04/25 04:50:06;;;;;;;9.35;1.27;;;;;;;;;;4959354;28;20034;-94
2022/04/25 04:52:32;;;;;;;5.15;1.15;;;;;;;;;;4959452;28;20058;-94
2022/04/25 04:54:58;;;;;;;7.45;1.70;;;;;;;;;;4959342;28;20034;-94
2022/04/25 04:57:24;;;;;;;8.75;1.80;;;;;;;;;;4959265;28;20489;-93
2022/04/25 04:59:50;;;;;;;6.88;1.48;;;;;;;;;;4959276;28;20031;-94
2022/04/25 05:02:17;;;;;;;10.38;1.90;;;;;;;;;;4959493;28;20027;-93
2022/04/25 05:04:48;;;;;;;4.10;1.33;;;;;;;;;;4959289;28;20483;-93
2022/04/25 05:07:15;;;;;;;3.85;1.38;;;;;;;;;;4959017;28;20427;-93
2022/04/25 05:09:41;;;;;;;4.22;1.48;;;;;;;;;;4958812;28;20502;-96
2022/04/25 05:12:08;;;;;;;8.50;2.63;;;;;;;;;;4959622;28;20085;-96
2022/04/25 05:14:34;;;;;;;7.18;2.25;;;;;;;;;;4959029;28;20372;-96
2022/04/25 05:17:00;;;;;;;7.60;2.58;;;;;;;;;;4958957;28;20033;-96
2022/04/25 05:19:26;;;;;;;10.35;2.03;;;;;;;;;;4959797;28;20034;-96
2022/04/25 05:21:52;;;;;;;13.30;3.13;;;;;;;;;;4959310;28;20030;-96
2022/04/25 05:24:19;;;;;;;8.57;3.28;;;;;;;;;;4958950;28;20026;-96
2022/04/25 05:26:45;;;;;;;12.38;2.75;;;;;;;;;;4959022;28;20069;-96
2022/04/25 05:29:14;;;;;;;8.10;2.88;;;;;;;;;;4958830;28;20110;-96
2022/04/25 05:31:40;;;;;;;7.68;2.15;;;;;;;;;;4959101;28;20121;-95
2022/04/25 05:34:06;;;;;;;9.02;2.80;;;;;;;;;;4958834;28;20035;-96
2022/04/25 05:36:32;;;;;;;12.05;2.70;;;;;;;;;;4959043;28;20062;-96
2022/04/25 05:38:58;;;;;;;8.38;2.90;;;;;;;;;;4958670;28;20030;-95
2022/04/25 05:41:24;;;;;;;7.43;2.00;;;;;;;;;;4958741;28;20057;-96
2022/04/25 05:43:51;;;;;;;6.63;2.05;;;;;;;;;;4958623;28;20380;-94
2022/04/25 05:46:17;;;;;;;7.43;1.63;;;;;;;;;;4958722;28;20478;-95
2022/04/25 05:54:13;;;;;;;8.95;2.58;;;;;;;;;;4975934;28;20086;-95
2022/04/25 05:56:39;;;;;;;5.90;2.50;;;;;;;;;;4958734;28;20089;-95
2022/04/25 05:59:05;;;;;;;8.98;1.90;;;;;;;;;;4958458;28;20030;-96
2022/04/25 06:01:31;;;;;;;10.23;2.40;;;;;;;;;;4958776;28;20023;-94
2022/04/25 06:03:57;;;;;;;8.52;1.98;;;;;;;;;;4958629;28;20030;-95
2022/04/25 06:06:26;;;;;;;8.60;1.95;;;;;;;;;;4958497;28;20034;-94
2022/04/25 06:08:52;;;;;;;10.23;1.90;;;;;;;;;;4958361;28;20027;-96
2022/04/25 06:11:21;;;;;;;10.75;2.10;;;;;;;;;;4958211;28;20058;-96
2022/04/25 06:13:47;;;;;;;7.95;2.15;;;;;;;;;;4958390;28;20019;-94
2022/04/25 06:16:13;;;;;;;8.88;2.20;;;;;;;;;;4958379;28;20498;-93
2022/04/25 06:18:39;;;;;;;7.32;1.73;;;;;;;;;;4958330;28;20015;-95
2022/04/25 06:21:05;;;;;;;7.72;2.35;;;;;;;;;;4961092;28;20031;-94
2022/04/25 06:23:32;;;;;;;5.32;1.60;;;;;;;;;;4963632;28;20102;-93
2022/04/25 06:25:58;;;;;;;9.45;2.30;;;;;;;;;;4962243;28;20023;-93
2022/04/25 06:28:24;;;;;;;5.97;1.70;;;;;;;;;;4962037;28;20023;-94
2022/04/25 06:30:51;;;;;;;11.38;2.40;;;;;;;;;;4961937;28;20031;-95
2022/04/25 06:33:17;;;;;;;13.20;2.40;;;;;;;;;;4961976;28;20394;-94
2022/04/25 06:35:44;;;;;;;6.05;2.15;;;;;;;;;;4948715;29;20103;-92
2022/04/25 06:38:11;;;;;;;4.97;1.70;;;;;;;;;;4963861;28;20476;-92
2022/04/25 06:40:40;;;;;;;7.85;2.28;;;;;;;;;;4958504;29;20079;-93
2022/04/25 06:43:08;;;;;;;8.95;2.05;;;;;;;;;;4958626;29;20023;-92
2022/04/25 06:45:34;;;;;;;8.77;1.95;;;;;;;;;;4958454;29;20027;-92
2022/04/25 06:48:00;;;;;;;8.52;1.92;;;;;;;;;;4958430;29;20026;-92
2022/04/25 06:50:26;;;;;;;11.30;2.08;;;;;;;;;;4958327;29;20119;-94
2022/04/25 06:52:53;;;;;;;8.43;2.28;;;;;;;;;;4958897;29;20416;-93
2022/04/25 06:55:20;;;;;;;11.27;1.98;;;;;;;;;;4958251;29;20492;-93
2022/04/25 06:57:49;;;;;;;6.25;1.92;;;;;;;;;;4958219;29;20035;-92
2022/04/25 07:00:17;;;;;;;8.82;2.40;;;;;;;;;;4958118;29;20031;-93
2022/04/25 07:02:47;;;;;;;9.23;2.28;;;;;;;;;;4958136;29;20110;-93
2022/04/25 07:05:13;;;;;;;12.65;2.25;;;;;;;;;;4958072;29;20392;-92
2022/04/25 07:07:39;;;;;;;9.48;2.33;;;;;;;;;;4961027;28;20034;-93
2022/04/25 07:10:06;;;;;;;9.15;2.17;;;;;;;;;;4960868;28;20049;-92
2022/04/25 07:12:33;;;;;;;7.85;1.88;;;;;;;;;;4960978;28;20041;-94
2022/04/25 07:14:59;;;;;;;6.43;2.17;;;;;;;;;;4961077;28;20054;-92
2022/04/25 07:17:44;;;;;;;8.32;2.65;;;;;;;;;;4961023;28;20046;-91
2022/04/25 07:20:10;;;;;;;8.38;1.80;;;;;;;;;;4961304;28;20491;-92
2022/04/25 07:30:51;;;;;;;8.90;2.40;;;;;;;;;;4976980;28;20506;-92
2022/04/25 07:33:26;;;;;;;8.73;2.00;;;;;;;;;;4960766;28;20391;-92
2022/04/25 07:35:53;;;;;;;9.98;2.05;;;;;;;;;;4961000;28;20043;-92
2022/04/25 07:38:31;;;;;;;7.82;1.80;;;;;;;;;;4961229;28;20034;-92
2022/04/25 07:40:57;;;;;;;12.35;1.98;;;;;;;;;;4960360;28;20031;-92
2022/04/25 07:43:23;;;;;;;8.43;1.80;;;;;;;;;;4957173;29;20392;-92
2022/04/25 07:45:50;;;;;;;7.85;1.70;;;;;;;;;;4955531;28;20050;-92
2022/04/25 07:48:16;;;;;;;7.53;2.17;;;;;;;;;;4960965;28;20031;-92
2022/04/25 07:50:47;;;;;;;8.23;1.80;;;;;;;;;;4960696;28;20464;-92
2022/04/25 07:53:17;;;;;;;8.25;2.00;;;;;;;;;;4960636;28;20058;-92
2022/04/25 07:56:07;;;;;;;;;;;;;;;;;;;;;
2022/04/25 07:58:37;;;;;;;9.05;2.40;;;;;;;;;;4956645;29;20035;-91
2022/04/25 08:10:15;;;;;;;5.25;1.77;;;;;;;;;;4937185;29;20054;-93
2022/04/25 08:19:53;;;;;;;9.80;2.05;;;;;;;;;;4937379;29;20101;-93
2022/04/25 08:22:28;;;;;;;7.25;1.55;;;;;;;;;;4934222;29;20036;-93
2022/04/25 08:25:18;;;;;;;6.55;1.80;;;;;;;;;;4921035;29;20047;-92
2022/04/25 08:27:57;;;;;;;;;;;;;;;;;;;;;
2022/04/25 08:30:31;;;;;;;4.25;1.70;;;;;;;;;;4936854;29;20056;-93
2022/04/25 09:00:55;;;;;;;12.18;2.50;;;;;;;;;;4916924;29;20032;-92
2022/04/25 09:03:34;;;;;;;;;;;;;;;;;;;;;
2022/04/25 09:06:06;;;;;;;12.18;2.47;;;;;;;;;;4898607;29;20428;-92
2022/04/25 09:08:38;;;;;;;8.30;2.20;;;;;;;;;;4906287;28;20103;-92
2022/04/25 09:13:55;;;;;;;6.28;2.35;;;;;;;;;;4976530;28;20169;-92
2022/04/25 09:16:29;;;;;;;11.10;2.70;;;;;;;;;;4958974;28;20530;-93
2022/04/25 09:18:55;;;;;;;12.45;2.22;;;;;;;;;;4959373;28;20027;-91
2022/04/25 09:21:22;;;;;;;7.82;2.85;;;;;;;;;;4958717;28;20038;-92
2022/04/25 09:23:54;;;;;;;11.50;2.63;;;;;;;;;;4958721;28;20023;-92
2022/04/25 09:26:28;;;;;;;8.80;2.45;;;;;;;;;;4958902;28;20464;-92
2022/04/25 09:29:03;;;;;;;11.23;2.72;;;;;;;;;;4959230;28;20141;-91
2022/04/25 09:31:37;;;;;;;8.88;2.85;;;;;;;;;;4943405;28;20030;-92
2022/04/25 09:37:12;;;;;;;11.45;2.70;;;;;;;;;;4975974;28;20033;-92
2022/04/25 09:39:45;;;;;;;9.73;2.40;;;;;;;;;;4958499;28;20030;-92
2022/04/25 09:42:38;;;;;;;;;;;;;;;;;;;;;
2022/04/25 09:45:15;;;;;;;6.95;2.15;;;;;;;;;;4956277;29;20031;-91
2022/04/25 09:47:45;;;;;;;10.95;2.40;;;;;;;;;;4939885;29;20476;-91
2022/04/25 09:50:17;;;;;;;9.77;2.40;;;;;;;;;;4939532;29;20063;-92
2022/04/25 09:53:19;;;;;;;10.85;2.20;;;;;;;;;;4939239;29;20027;-92
2022/04/25 09:55:47;;;;;;;10.60;2.92;;;;;;;;;;4864048;29;20463;-92
2022/04/25 09:58:19;;;;;;;11.23;3.05;;;;;;;;;;4939404;29;20061;-91
2022/04/25 10:00:45;;;;;;;9.43;2.38;;;;;;;;;;4943490;28;20034;-92
2022/04/25 10:03:32;;;;;;;7.50;2.15;;;;;;;;;;4958579;28;20427;-92
2022/04/25 10:06:15;;;;;;;15.20;3.35;;;;;;;;;;4958164;28;20082;-92
2022/04/25 10:08:49;;;;;;;12.48;3.42;;;;;;;;;;4959365;28;20559;-92
2022/04/25 10:11:45;;;;;;;13.15;3.55;;;;;;;;;;4957801;28;20046;-91
2022/04/25 10:14:26;;;;;;;12.95;3.00;;;;;;;;;;4958085;28;20069;-92
2022/04/25 10:44:57;;;;;;;183.00;115.63;;;;;;;;;;4925423;29;20116;-92
2022/04/25 10:47:52;;;;;;;178.82;102.72;;;;;;;;;;4915908;29;20020;-92
2022/04/25 10:54:19;;;;;;;61.20;27.73;;;;;;;;;;4907856;29;20028;-92
2022/04/25 11:03:28;;;;;;;14.48;6.03;;;;;;;;;;4916655;28;20028;-91
2022/04/25 11:06:07;;;;;;;11.18;4.50;;;;;;;;;;4880126;29;20402;-92
2022/04/25 11:08:59;;;;;;;14.82;5.13;;;;;;;;;;4906760;29;20032;-91
2022/04/25 11:14:35;;;;;;;14.32;4.85;;;;;;;;;;4956812;29;20038;-91
2022/04/25 11:17:11;;;;;;;10.63;3.70;;;;;;;;;;4942075;29;20027;-93
2022/04/25 11:20:06;;;;;;;9.10;2.80;;;;;;;;;;4941805;29;20036;-92
2022/04/25 11:22:39;;;;;;;16.27;3.85;;;;;;;;;;4940761;29;20086;-94
2022/04/25 11:25:34;;;;;;;;;;;;;;;;;;;;;
2022/04/25 11:31:16;;;;;;;8.05;2.60;;;;;;;;;;4926682;29;20038;-93
2022/04/25 11:34:11;;;;;;;;;;;;;;;;;;;;;
2022/04/25 11:36:39;;;;;;;6.38;2.45;;;;;;;;;;4958365;29;20033;-92
2022/04/25 11:41:58;;;;;;;;;;;;;;;;;;4959096;29;20118;-92
2022/04/25 11:44:24;;;;;;;16.08;4.35;;;;;;;;;;4941401;29;20009;-93
2022/04/25 11:46:51;;;;;;;9.75;3.30;;;;;;;;;;4941290;29;20023;-93
2022/04/25 11:52:55;;;;;;;12.32;3.88;;;;;;;;;;4851423;29;20530;-92
2022/04/25 11:55:35;;;;;;;9.25;3.90;;;;;;;;;;4923038;28;20026;-92
2022/04/25 11:58:02;;;;;;;11.73;3.78;;;;;;;;;;4960265;28;20019;-91
2022/04/25 12:00:33;;;;;;;11.00;4.50;;;;;;;;;;4960025;28;20061;-92
2022/04/25 12:02:59;;;;;;;12.95;3.75;;;;;;;;;;4960834;28;20027;-92
2022/04/25 12:05:29;;;;;;;10.23;2.60;;;;;;;;;;4960454;28;20026;-92
2022/04/25 12:16:28;;;;;;;17.88;4.93;;;;;;;;;;4977574;28;20030;-91
2022/04/25 12:19:00;;;;;;;10.27;4.25;;;;;;;;;;4959081;28;20027;-92
2022/04/25 12:21:37;;;;;;;12.63;3.78;;;;;;;;;;4960196;28;20605;-92
2022/04/25 12:24:05;;;;;;;15.93;6.18;;;;;;;;;;4959806;28;20077;-93
2022/04/25 12:26:31;;;;;;;14.25;5.57;;;;;;;;;;4959888;28;20094;-93
2022/04/25 12:28:59;;;;;;;13.98;4.95;;;;;;;;;;4959852;28;20055;-93
2022/04/25 12:31:25;;;;;;;19.73;6.05;;;;;;;;;;4959773;28;20034;-93
2022/04/25 12:33:52;;;;;;;21.15;8.98;;;;;;;;;;4959716;28;20026;-92
2022/04/25 12:36:19;;;;;;;20.60;8.68;;;;;;;;;;4959637;28;20436;-92
2022/04/25 12:39:14;;;;;;;;;;;;;;;;;;;;;
2022/04/25 12:42:03;;;;;;;;;;;;;;;;;;;;;
2022/04/25 12:44:30;;;;;;;16.02;5.93;;;;;;;;;;4976584;28;20033;-92
2022/04/25 12:47:23;;;;;;;15.10;4.82;;;;;;;;;;4959491;28;20019;-93
2022/04/25 12:49:50;;;;;;;12.63;4.97;;;;;;;;;;4958818;28;20153;-93
2022/04/25 12:52:16;;;;;;;10.60;5.18;;;;;;;;;;4959260;28;20030;-92
2022/04/25 12:54:42;;;;;;;20.80;5.55;;;;;;;;;;4959546;28;20027;-92
2022/04/25 12:57:12;;;;;;;17.25;5.80;;;;;;;;;;4959136;28;20479;-92
2022/04/25 12:59:38;;;;;;;12.40;5.20;;;;;;;;;;4959486;28;20042;-92
2022/04/25 13:02:15;;;;;;;13.60;5.00;;;;;;;;;;4959281;28;20030;-92
2022/04/25 13:04:56;;;;;;;17.17;5.60;;;;;;;;;;4959003;28;20118;-91
2022/04/25 13:07:23;;;;;;;12.57;5.13;;;;;;;;;;4958941;28;20539;-92
2022/04/25 13:09:50;;;;;;;17.35;5.68;;;;;;;;;;4944187;29;20027;-91
2022/04/25 13:12:17;;;;;;;13.82;4.15;;;;;;;;;;4940002;29;20054;-92
2022/04/25 13:14:45;;;;;;;12.25;3.53;;;;;;;;;;4939613;29;20161;-92
2022/04/25 13:17:12;;;;;;;8.88;3.15;;;;;;;;;;4939708;29;20118;-92
2022/04/25 13:19:38;;;;;;;11.43;3.38;;;;;;;;;;4941094;28;20041;-92
2022/04/25 13:22:04;;;;;;;9.40;2.53;;;;;;;;;;4958642;28;20061;-92
2022/04/25 13:24:32;;;;;;;14.65;3.35;;;;;;;;;;4958796;28;20034;-92
2022/04/25 13:26:58;;;;;;;12.30;3.83;;;;;;;;;;4958811;28;20392;-92
2022/04/25 14:08:47;;;;;;;12.93;3.20;;;;;;;;;;4780644;28;20561;-93
2022/04/25 14:11:13;;;;;;;14.93;3.35;;;;;;;;;;4978024;28;20038;-94
2022/04/25 14:13:39;;;;;;;12.80;3.78;;;;;;;;;;4979007;28;20031;-94
2022/04/25 14:16:06;;;;;;;10.65;2.65;;;;;;;;;;4977676;28;20030;-93
2022/04/25 14:18:32;;;;;;;12.05;2.85;;;;;;;;;;4977819;28;20054;-95
2022/04/25 14:20:59;;;;;;;19.23;3.63;;;;;;;;;;4978896;28;20188;-94
2022/04/25 14:23:25;;;;;;;17.02;2.85;;;;;;;;;;4977689;28;20026;-94
2022/04/25 14:25:54;;;;;;;25.08;3.33;;;;;;;;;;4978199;28;20126;-95
2022/04/25 14:28:20;;;;;;;15.88;2.92;;;;;;;;;;4979405;28;20080;-95
2022/04/25 14:30:48;;;;;;;15.85;3.63;;;;;;;;;;4978243;28;20238;-94
2022/04/25 14:33:15;;;;;;;11.88;3.05;;;;;;;;;;4978705;28;20027;-94
2022/04/25 14:35:41;;;;;;;13.75;2.78;;;;;;;;;;4978734;28;20037;-95
2022/04/25 14:38:22;;;;;;;48.42;5.72;;;;;;;;;;4978333;28;20069;-93
2022/04/25 14:40:49;;;;;;;12.77;2.95;;;;;;;;;;4979025;28;20031;-93
2022/04/25 14:43:15;;;;;;;14.55;3.13;;;;;;;;;;4981646;28;20019;-91
2022/04/25 14:45:43;;;;;;;13.10;3.00;;;;;;;;;;4981524;28;20026;-93
2022/04/25 14:48:09;;;;;;;11.68;2.40;;;;;;;;;;4982734;28;20053;-94
2022/04/25 14:56:07;;;;;;;10.60;2.13;;;;;;;;;;4999327;28;20173;-94
2022/04/25 14:58:33;;;;;;;10.80;2.45;;;;;;;;;;4980819;28;20026;-95
2022/04/25 15:01:01;;;;;;;7.75;2.10;;;;;;;;;;4980873;28;20026;-94
2022/04/25 15:03:29;;;;;;;10.15;2.38;;;;;;;;;;4980743;28;20471;-93
2022/04/25 15:05:56;;;;;;;6.80;2.28;;;;;;;;;;4980953;28;20050;-94
2022/04/25 15:08:22;;;;;;;8.70;2.63;;;;;;;;;;4980462;28;20049;-94
2022/04/25 15:10:49;;;;;;;8.88;2.30;;;;;;;;;;4980700;28;20022;-94
2022/04/25 15:13:15;;;;;;;15.27;1.80;;;;;;;;;;4980769;28;20026;-94
2022/04/25 15:15:42;;;;;;;8.25;2.28;;;;;;;;;;4980699;28;20521;-95
2022/04/25 15:18:09;;;;;;;10.40;2.15;;;;;;;;;;4980662;28;20031;-95
2022/04/25 15:20:36;;;;;;;10.57;2.28;;;;;;;;;;4981025;28;20478;-95
2022/04/25 15:23:04;;;;;;;12.25;2.97;;;;;;;;;;4980766;28;20022;-95
2022/04/25 15:25:31;;;;;;;10.48;3.08;;;;;;;;;;4980474;28;20026;-94
2022/04/25 15:28:00;;;;;;;21.48;3.38;;;;;;;;;;4981085;28;20113;-95
2022/04/25 15:30:26;;;;;;;14.25;2.90;;;;;;;;;;4980319;28;20053;-96
2022/04/25 15:32:52;;;;;;;13.07;2.95;;;;;;;;;;4980365;28;20124;-95
2022/04/25 15:35:18;;;;;;;13.02;3.22;;;;;;;;;;4980792;28;20077;-96
2022/04/25 15:37:45;;;;;;;17.05;4.15;;;;;;;;;;4980325;28;20486;-95
2022/04/25 15:40:11;;;;;;;16.73;3.42;;;;;;;;;;4979998;28;20034;-95
2022/04/25 15:42:37;;;;;;;12.88;4.07;;;;;;;;;;4980178;28;20045;-96
2022/04/25 15:45:04;;;;;;;19.33;3.85;;;;;;;;;;4980607;28;20493;-96
2022/04/25 15:47:30;;;;;;;11.70;3.20;;;;;;;;;;4980276;28;20023;-96
2022/04/25 15:49:56;;;;;;;17.80;4.18;;;;;;;;;;4980478;28;20080;-95
2022/04/25 15:52:23;;;;;;;15.38;3.13;;;;;;;;;;4980572;28;20066;-94
2022/04/25 15:57:52;;;;;;;14.48;3.40;;;;;;;;;;4997758;28;20038;-95
2022/04/25 16:00:25;;;;;;;18.92;5.00;;;;;;;;;;4979880;28;20503;-95
2022/04/25 16:02:52;;;;;;;12.13;3.38;;;;;;;;;;4980806;28;20026;-96
2022/04/25 16:05:19;;;;;;;11.77;3.80;;;;;;;;;;4979902;28;20041;-96
2022/04/25 16:07:45;;;;;;;13.52;3.80;;;;;;;;;;4979706;28;20502;-96
2022/04/25 16:10:12;;;;;;;14.82;3.40;;;;;;;;;;4980164;28;20056;-95
2022/04/25 16:12:38;;;;;;;14.40;3.13;;;;;;;;;;4979888;28;20030;-96
2022/04/25 16:15:06;;;;;;;11.13;3.22;;;;;;;;;;4979662;28;20425;-95
2022/04/25 16:17:32;;;;;;;16.10;3.38;;;;;;;;;;4980016;28;20113;-96
2022/04/25 16:19:58;;;;;;;15.07;4.93;;;;;;;;;;4979838;28;20030;-96
2022/04/25 16:22:25;;;;;;;16.00;3.55;;;;;;;;;;4979559;28;20141;-96
2022/04/25 16:24:51;;;;;;;23.92;3.88;;;;;;;;;;4979412;28;20027;-95
2022/04/25 16:27:17;;;;;;;16.25;3.17;;;;;;;;;;4979566;28;20023;-95
2022/04/25 16:29:44;;;;;;;11.93;3.38;;;;;;;;;;4963689;28;20048;-95
2022/04/25 16:32:16;;;;;;;16.52;3.42;;;;;;;;;;4979733;28;20030;-96
2022/04/25 16:34:44;;;;;;;18.88;3.78;;;;;;;;;;4979564;28;20038;-96
2022/04/25 16:37:11;;;;;;;14.10;4.00;;;;;;;;;;4979324;28;20030;-96
2022/04/25 16:39:37;;;;;;;13.27;3.35;;;;;;;;;;4979116;28;20068;-95
2022/04/25 16:42:05;;;;;;;15.68;3.60;;;;;;;;;;4978856;28;20046;-95
2022/04/25 16:44:32;;;;;;;13.88;3.47;;;;;;;;;;4979217;28;20101;-95
2022/04/25 16:46:58;;;;;;;16.38;3.05;;;;;;;;;;4979128;28;20046;-96
2022/04/25 16:49:24;;;;;;;13.45;3.10;;;;;;;;;;4978819;28;20026;-95
2022/04/25 16:51:53;;;;;;;18.27;3.55;;;;;;;;;;4978598;28;20026;-95
2022/04/25 16:54:19;;;;;;;16.63;3.67;;;;;;;;;;4978921;28;20116;-95
2022/04/25 16:56:47;;;;;;;11.45;3.58;;;;;;;;;;4978781;28;20048;-95
2022/04/25 16:59:13;;;;;;;17.30;4.03;;;;;;;;;;4978695;28;20022;-94
2022/04/25 17:01:39;;;;;;;12.32;3.00;;;;;;;;;;4978677;28;20048;-96
2022/04/25 17:04:05;;;;;;;10.15;3.00;;;;;;;;;;4979162;28;20026;-94
2022/04/25 17:06:32;;;;;;;12.70;3.80;;;;;;;;;;4978881;28;20022;-95
2022/04/25 17:08:59;;;;;;;11.18;3.80;;;;;;;;;;4978498;28;20054;-95
2022/04/25 17:11:25;;;;;;;12.23;4.00;;;;;;;;;;4978521;28;20034;-95
2022/04/25 17:13:51;;;;;;;8.57;3.17;;;;;;;;;;4978641;28;20030;-96
2022/04/25 17:16:18;;;;;;;16.27;4.82;;;;;;;;;;4978925;28;20121;-95
2022/04/25 17:18:44;;;;;;;14.07;3.60;;;;;;;;;;4978826;28;20037;-96
2022/04/25 17:21:16;;;;;;;8.85;3.65;;;;;;;;;;4978751;28;20049;-96
2022/04/25 17:23:48;;;;;;;;;;;;;;;;;;4979889;28;20084;-94
2022/04/25 17:26:16;;;;;;;9.82;3.22;;;;;;;;;;4978608;28;19906;-96
2022/04/25 17:28:42;;;;;;;16.58;4.60;;;;;;;;;;4978183;28;20553;-95
